Time;durP1;ratioP1;P1;durP2;ratioP2;P2;SDS_P1;SDS_P2;PMS_P1;PMS_P2;Temp;Humidity;BMP_temperature;BMP_pressure;BME280_temperature;BME280_humidity;BME280_pressure;Samples;Min_cycle;Max_cycle;Signal;HPM_P1;HPM_P2
2023/01/16 00:07:28;;;;;;;6.00;2.00;;;;;;;;;;21008807;28;20117;-56
2023/01/16 00:17:29;;;;;;;5.45;1.55;;;;;;;;;;21007581;28;20040;-55
2023/01/16 00:27:31;;;;;;;2.60;1.00;;;;;;;;;;21006870;28;20412;-55
2023/01/16 00:37:32;;;;;;;7.57;1.88;;;;;;;;;;21007709;28;20121;-54
2023/01/16 00:47:33;;;;;;;3.25;1.00;;;;;;;;;;21006473;28;20076;-54
2023/01/16 00:57:35;;;;;;;4.07;1.60;;;;;;;;;;21010773;28;20063;-61
2023/01/16 01:07:37;;;;;;;4.28;1.27;;;;;;;;;;21008390;28;20491;-59
2023/01/16 01:17:39;;;;;;;2.97;1.17;;;;;;;;;;21026416;28;20048;-57
2023/01/16 01:27:42;;;;;;;3.25;1.08;;;;;;;;;;21023426;28;20055;-60
2023/01/16 01:37:44;;;;;;;5.82;1.60;;;;;;;;;;21000899;28;20048;-58
2023/01/16 01:47:49;;;;;;;4.78;1.67;;;;;;;;;;21002149;28;20056;-59
2023/01/16 01:57:55;;;;;;;2.97;1.67;;;;;;;;;;21004341;28;20061;-61
2023/01/16 02:07:58;;;;;;;5.70;2.25;;;;;;;;;;21008311;28;20055;-61
2023/01/16 02:28:32;;;;;;;5.53;2.28;;;;;;;;;;21003283;28;20045;-57
2023/01/16 02:38:49;;;;;;;3.05;1.70;;;;;;;;;;20999378;28;20086;-57
2023/01/16 02:49:17;;;;;;;3.97;1.90;;;;;;;;;;20999142;28;20454;-59
2023/01/16 02:59:20;;;;;;;3.45;1.75;;;;;;;;;;21000986;28;20111;-60
2023/01/16 03:09:33;;;;;;;4.05;1.58;;;;;;;;;;21011077;28;20052;-68
2023/01/16 03:19:37;;;;;;;4.57;1.67;;;;;;;;;;21001619;28;20373;-60
2023/01/16 03:29:52;;;;;;;3.33;1.40;;;;;;;;;;20997493;28;20477;-59
2023/01/16 03:40:16;;;;;;;4.80;1.50;;;;;;;;;;20995796;28;20068;-57
2023/01/16 03:50:38;;;;;;;3.25;1.50;;;;;;;;;;20995699;28;20060;-58
2023/01/16 04:00:54;;;;;;;13.48;6.18;;;;;;;;;;21009588;28;20057;-57
2023/01/16 04:11:06;;;;;;;7.30;1.80;;;;;;;;;;21019277;28;20124;-57
2023/01/16 04:21:15;;;;;;;5.50;1.45;;;;;;;;;;21011055;28;20057;-59
2023/01/16 04:31:20;;;;;;;4.93;1.25;;;;;;;;;;21008633;28;20044;-61
2023/01/16 04:41:37;;;;;;;4.15;1.38;;;;;;;;;;21007803;28;20045;-61
2023/01/16 04:51:59;;;;;;;4.90;1.50;;;;;;;;;;21008580;28;20048;-62
2023/01/16 05:02:00;;;;;;;6.80;1.52;;;;;;;;;;21014051;28;20057;-61
2023/01/16 05:12:03;;;;;;;7.78;2.03;;;;;;;;;;21006154;28;20064;-61
2023/01/16 05:22:06;;;;;;;3.22;1.50;;;;;;;;;;20986111;28;20075;-63
2023/01/16 05:32:08;;;;;;;5.55;1.70;;;;;;;;;;21003330;28;20052;-61
2023/01/16 05:42:20;;;;;;;5.32;1.25;;;;;;;;;;21004053;28;20055;-62
2023/01/16 05:52:23;;;;;;;1.98;1.08;;;;;;;;;;21008409;28;20052;-61
2023/01/16 06:02:25;;;;;;;4.30;1.90;;;;;;;;;;20982806;28;20052;-61
2023/01/16 06:12:28;;;;;;;6.50;1.67;;;;;;;;;;21003073;28;20405;-60
2023/01/16 06:22:29;;;;;;;5.03;1.45;;;;;;;;;;20999630;28;20087;-60
2023/01/16 06:32:31;;;;;;;4.50;1.55;;;;;;;;;;20999488;28;20045;-64
2023/01/16 06:42:33;;;;;;;4.88;1.30;;;;;;;;;;21007291;28;20053;-67
2023/01/16 06:52:39;;;;;;;2.15;1.10;;;;;;;;;;21009719;28;20546;-64
2023/01/16 07:02:41;;;;;;;4.75;1.20;;;;;;;;;;21005692;28;20048;-64
2023/01/16 07:12:43;;;;;;;7.20;1.98;;;;;;;;;;21005678;28;20056;-58
2023/01/16 07:22:46;;;;;;;4.68;1.60;;;;;;;;;;21000224;28;20443;-58
2023/01/16 07:32:48;;;;;;;5.45;1.50;;;;;;;;;;21008991;28;20047;-63
2023/01/16 07:42:51;;;;;;;6.28;2.15;;;;;;;;;;21014626;28;20052;-56
2023/01/16 07:52:53;;;;;;;11.93;2.83;;;;;;;;;;21015706;28;20056;-57
2023/01/16 08:02:55;;;;;;;6.10;1.48;;;;;;;;;;21017189;28;20052;-56
2023/01/16 08:12:56;;;;;;;4.97;1.67;;;;;;;;;;20994022;28;20049;-62
2023/01/16 08:23:00;;;;;;;5.47;1.60;;;;;;;;;;21009376;28;20044;-63
2023/01/16 08:33:02;;;;;;;5.25;1.42;;;;;;;;;;21011507;28;20085;-63
2023/01/16 08:53:25;;;;;;;10.10;2.00;;;;;;;;;;21009734;28;20048;-56
2023/01/16 09:03:27;;;;;;;3.63;1.50;;;;;;;;;;21012165;28;20052;-57
2023/01/16 09:23:49;;;;;;;5.85;1.60;;;;;;;;;;21013367;28;20408;-58
2023/01/16 09:33:52;;;;;;;7.32;1.73;;;;;;;;;;21013936;28;20078;-57
2023/01/16 09:43:54;;;;;;;5.72;1.60;;;;;;;;;;21004413;28;20048;-58
2023/01/16 10:04:20;;;;;;;4.43;1.63;;;;;;;;;;20999536;28;20129;-57
2023/01/16 10:14:34;;;;;;;5.75;1.73;;;;;;;;;;20998683;28;20048;-59
2023/01/16 10:24:44;;;;;;;4.63;1.83;;;;;;;;;;20997954;28;20052;-58
2023/01/16 10:34:54;;;;;;;3.70;1.50;;;;;;;;;;20997825;28;20135;-57
2023/01/16 10:55:39;;;;;;;2.70;1.20;;;;;;;;;;20996665;28;20058;-59
2023/01/16 11:05:40;;;;;;;2.67;1.10;;;;;;;;;;21001056;28;20075;-58
2023/01/16 11:26:31;;;;;;;2.53;0.82;;;;;;;;;;20754789;28;20505;-59
2023/01/16 11:36:34;;;;;;;4.70;0.80;;;;;;;;;;20753268;28;20062;-59
2023/01/16 11:46:41;;;;;;;2.10;0.98;;;;;;;;;;20753128;28;20182;-60
2023/01/16 11:57:02;;;;;;;3.40;1.13;;;;;;;;;;20820271;28;20056;-61
2023/01/16 12:07:24;;;;;;;3.58;0.95;;;;;;;;;;21007544;28;20053;-63
2023/01/16 12:17:29;;;;;;;2.30;1.35;;;;;;;;;;21006190;28;20476;-59
2023/01/16 12:27:46;;;;;;;4.53;2.05;;;;;;;;;;21007017;28;20403;-63
2023/01/16 12:37:48;;;;;;;4.38;1.27;;;;;;;;;;21007446;28;20144;-60
2023/01/16 12:47:50;;;;;;;8.23;1.50;;;;;;;;;;21005483;28;20044;-61
2023/01/16 12:57:55;;;;;;;4.25;1.35;;;;;;;;;;21004372;28;20378;-59
2023/01/16 13:08:19;;;;;;;4.47;1.00;;;;;;;;;;21004032;28;20052;-61
2023/01/16 13:18:24;;;;;;;4.60;1.63;;;;;;;;;;20984173;28;20545;-60
2023/01/16 13:28:26;;;;;;;5.88;1.50;;;;;;;;;;20983335;28;20063;-61
2023/01/16 13:38:35;;;;;;;4.72;1.33;;;;;;;;;;20999894;28;20052;-60
2023/01/16 13:48:37;;;;;;;7.05;2.05;;;;;;;;;;20981840;28;20048;-60
2023/01/16 13:58:41;;;;;;;11.43;2.25;;;;;;;;;;20981497;28;20076;-59
2023/01/16 14:09:04;;;;;;;8.68;3.42;;;;;;;;;;20980792;28;20041;-60
2023/01/16 14:19:15;;;;;;;8.63;2.33;;;;;;;;;;20997123;28;20189;-61
2023/01/16 14:29:19;;;;;;;5.47;1.50;;;;;;;;;;20997151;28;20097;-61
2023/01/16 14:39:29;;;;;;;7.13;2.17;;;;;;;;;;20996156;28;20052;-61
2023/01/16 15:00:20;;;;;;;8.10;2.03;;;;;;;;;;20995690;28;20048;-60
2023/01/16 15:10:24;;;;;;;13.60;4.95;;;;;;;;;;20995339;28;20051;-62
2023/01/16 15:30:54;;;;;;;4.85;1.63;;;;;;;;;;20994426;28;20080;-61
2023/01/16 15:40:56;;;;;;;6.45;1.40;;;;;;;;;;20976267;28;20056;-58
2023/01/16 15:51:00;;;;;;;3.40;1.38;;;;;;;;;;20998261;28;20488;-57
2023/01/16 16:01:04;;;;;;;3.00;1.48;;;;;;;;;;21008425;28;20052;-57
2023/01/16 16:32:13;;;;;;;4.10;1.02;;;;;;;;;;21006033;28;20059;-59
2023/01/16 16:42:40;;;;;;;3.85;1.42;;;;;;;;;;21004739;28;20139;-59
2023/01/16 16:52:46;;;;;;;4.70;1.30;;;;;;;;;;21004400;28;20047;-59
2023/01/16 17:02:48;;;;;;;3.67;1.52;;;;;;;;;;21002199;28;20079;-56
2023/01/16 17:12:50;;;;;;;2.33;0.88;;;;;;;;;;21002700;28;20048;-58
2023/01/16 17:22:52;;;;;;;3.40;1.15;;;;;;;;;;21002109;28;20076;-59
2023/01/16 17:32:58;;;;;;;2.13;0.90;;;;;;;;;;21001089;28;20056;-63
2023/01/16 17:53:25;;;;;;;3.67;1.10;;;;;;;;;;20999976;28;20182;-60
2023/01/16 18:03:27;;;;;;;3.67;1.00;;;;;;;;;;20999939;28;20381;-59
2023/01/16 18:23:49;;;;;;;2.92;1.02;;;;;;;;;;20997394;28;20066;-58
2023/01/16 18:33:52;;;;;;;4.00;1.23;;;;;;;;;;20996981;28;20048;-60
2023/01/16 19:04:37;;;;;;;3.25;1.50;;;;;;;;;;20995517;28;20144;-58
2023/01/16 19:14:41;;;;;;;3.75;1.08;;;;;;;;;;20994847;28;20071;-58
2023/01/16 19:24:43;;;;;;;3.87;0.90;;;;;;;;;;20996200;28;20067;-60
2023/01/16 19:34:47;;;;;;;3.50;1.10;;;;;;;;;;21010464;28;20052;-59
2023/01/16 19:55:10;;;;;;;3.15;1.10;;;;;;;;;;21009829;28;20109;-58
2023/01/16 20:05:12;;;;;;;2.55;1.45;;;;;;;;;;21007613;28;20055;-60
2023/01/16 20:15:17;;;;;;;2.47;0.90;;;;;;;;;;21006906;28;20063;-60
2023/01/16 20:25:19;;;;;;;4.32;1.20;;;;;;;;;;21007508;28;20049;-61
2023/01/16 20:35:21;;;;;;;4.00;0.85;;;;;;;;;;21005141;28;20449;-58
2023/01/16 20:55:45;;;;;;;2.25;1.17;;;;;;;;;;21004845;28;20048;-59
2023/01/16 21:05:49;;;;;;;3.67;1.70;;;;;;;;;;21003429;28;20051;-59
2023/01/16 21:21:46;;;;;;;2.37;0.90;;;;;;;;;;21002784;28;20044;-61
2023/01/16 21:26:15;;;;;;;4.32;1.00;;;;;;;;;;21001094;28;20041;-58
2023/01/16 21:36:17;;;;;;;1.83;0.88;;;;;;;;;;21001296;28;20458;-63
2023/01/16 21:46:29;;;;;;;2.50;0.98;;;;;;;;;;21000546;28;20045;-62
2023/01/16 21:56:30;;;;;;;3.17;1.42;;;;;;;;;;20999421;28;20062;-60
2023/01/16 22:06:32;;;;;;;3.63;1.05;;;;;;;;;;20998940;28;20045;-62
2023/01/16 22:26:54;;;;;;;1.52;0.73;;;;;;;;;;20997947;28;20086;-60
2023/01/16 22:36:56;;;;;;;3.22;0.85;;;;;;;;;;20997495;28;20087;-62
2023/01/16 22:46:58;;;;;;;2.03;0.85;;;;;;;;;;20996233;28;20048;-61
2023/01/16 22:57:00;;;;;;;4.72;1.67;;;;;;;;;;20995663;28;20088;-61
2023/01/16 23:07:02;;;;;;;2.72;0.90;;;;;;;;;;20994840;28;20570;-61
2023/01/16 23:17:04;;;;;;;2.08;0.75;;;;;;;;;;20995882;28;20525;-60
2023/01/16 23:27:06;;;;;;;3.30;1.60;;;;;;;;;;20995080;28;20045;-61
2023/01/16 23:37:09;;;;;;;2.88;0.77;;;;;;;;;;20995340;28;20059;-61
2023/01/16 23:47:11;;;;;;;3.72;0.90;;;;;;;;;;20994263;28;20175;-59
2023/01/16 23:57:15;;;;;;;1.85;0.70;;;;;;;;;;20994199;28;20084;-61
